createdAt,value
2023-01-29T00:00:16.972Z,6.33
2023-01-29T00:02:45.926Z,6.30
2023-01-29T00:05:27.058Z,5.63
2023-01-29T00:07:56.691Z,6.93
2023-01-29T00:10:25.755Z,8.00
2023-01-29T00:12:55.365Z,7.97
2023-01-29T00:15:25.430Z,6.97
2023-01-29T00:17:54.118Z,6.73
2023-01-29T00:20:22.723Z,7.83
2023-01-29T00:22:51.352Z,6.87
2023-01-29T00:25:20.035Z,7.80
2023-01-29T00:27:48.644Z,6.63
2023-01-29T00:30:20.115Z,7.40
2023-01-29T00:32:51.217Z,7.50
2023-01-29T00:35:19.898Z,7.30
2023-01-29T00:37:48.560Z,7.43
2023-01-29T00:40:17.949Z,8.30
2023-01-29T00:43:04.282Z,8.73
2023-01-29T00:45:33.839Z,10.00
2023-01-29T00:48:04.162Z,9.90
2023-01-29T00:50:33.217Z,10.70
2023-01-29T00:53:01.756Z,9.80
2023-01-29T00:55:30.590Z,9.13
2023-01-29T00:57:59.171Z,6.63
2023-01-29T01:00:28.765Z,8.50
2023-01-29T01:03:08.432Z,7.80
2023-01-29T01:05:39.342Z,6.37
2023-01-29T01:08:28.940Z,6.57
2023-01-29T01:11:02.678Z,6.83
2023-01-29T01:13:32.604Z,6.70
2023-01-29T01:16:01.622Z,6.60
2023-01-29T01:18:31.762Z,6.43
2023-01-29T01:21:01.817Z,5.80
2023-01-29T01:23:31.319Z,6.33
2023-01-29T01:25:59.995Z,7.13
2023-01-29T01:28:29.592Z,6.97
2023-01-29T01:30:58.247Z,6.93
2023-01-29T01:33:26.940Z,7.00
2023-01-29T01:35:56.480Z,6.57
2023-01-29T01:38:26.487Z,5.77
2023-01-29T01:40:56.417Z,5.70
2023-01-29T01:43:25.103Z,4.97
2023-01-29T01:45:54.272Z,4.90
2023-01-29T01:48:26.166Z,4.87
2023-01-29T01:51:00.820Z,5.37
2023-01-29T01:53:37.656Z,4.87
2023-01-29T01:56:10.386Z,4.73
2023-01-29T01:58:42.415Z,4.50
2023-01-29T02:01:12.929Z,4.93
2023-01-29T02:04:04.938Z,5.40
2023-01-29T02:06:52.487Z,5.10
2023-01-29T02:09:33.717Z,5.23
2023-01-29T02:12:02.890Z,4.93
2023-01-29T02:14:32.303Z,5.63
2023-01-29T02:17:02.606Z,5.47
2023-01-29T02:19:43.047Z,5.40
2023-01-29T02:22:30.700Z,5.50
2023-01-29T02:25:23.081Z,5.80
2023-01-29T02:28:17.409Z,5.50
2023-01-29T02:30:54.573Z,5.00
2023-01-29T02:33:32.802Z,5.37
2023-01-29T02:36:11.308Z,4.80
2023-01-29T02:38:47.140Z,6.13
2023-01-29T02:41:25.841Z,6.33
2023-01-29T02:44:03.473Z,6.50
2023-01-29T02:46:37.142Z,7.80
2023-01-29T02:49:13.671Z,8.80
2023-01-29T02:51:50.433Z,7.10
2023-01-29T02:54:23.483Z,6.67
2023-01-29T02:56:57.676Z,6.60
2023-01-29T02:59:34.294Z,6.40
2023-01-29T03:02:09.587Z,6.80
2023-01-29T03:04:45.862Z,6.53
2023-01-29T03:07:39.759Z,5.97
2023-01-29T03:10:17.241Z,6.00
2023-01-29T03:12:48.258Z,5.53
2023-01-29T03:15:25.306Z,5.13
2023-01-29T03:18:30.736Z,5.07
2023-01-29T03:21:28.176Z,4.70
2023-01-29T03:24:17.392Z,4.63
2023-01-29T03:27:03.394Z,4.83
2023-01-29T03:29:55.759Z,5.00
2023-01-29T03:32:32.086Z,4.90
2023-01-29T03:35:06.568Z,5.33
2023-01-29T03:37:41.165Z,4.90
2023-01-29T03:40:11.905Z,4.87
2023-01-29T03:42:51.464Z,4.90
2023-01-29T03:45:27.150Z,5.10
2023-01-29T03:48:06.216Z,4.80
2023-01-29T03:50:40.599Z,5.27
2023-01-29T03:53:18.432Z,6.63
2023-01-29T03:55:58.446Z,7.00
2023-01-29T03:58:36.833Z,7.03
2023-01-29T04:01:12.459Z,7.97
2023-01-29T04:03:49.649Z,7.00
2023-01-29T04:06:22.267Z,5.90
2023-01-29T04:09:04.629Z,5.40
2023-01-29T04:11:39.111Z,5.57
2023-01-29T04:14:08.572Z,5.73
2023-01-29T04:16:42.169Z,6.50
2023-01-29T04:19:19.671Z,6.33
2023-01-29T04:21:52.073Z,6.33
2023-01-29T04:24:21.302Z,6.60
2023-01-29T04:27:04.624Z,6.57
2023-01-29T04:29:50.324Z,6.97
2023-01-29T04:32:25.755Z,7.13
2023-01-29T04:35:02.702Z,6.40
2023-01-29T04:37:41.368Z,6.23
2023-01-29T04:40:24.801Z,5.07
2023-01-29T04:43:02.513Z,4.03
2023-01-29T04:45:42.680Z,4.40
2023-01-29T04:48:20.993Z,4.23
2023-01-29T04:50:58.062Z,4.33
2023-01-29T04:53:33.688Z,4.07
2023-01-29T04:56:09.817Z,4.20
2023-01-29T04:58:43.138Z,3.97
2023-01-29T05:01:16.221Z,4.07
2023-01-29T05:03:48.191Z,4.23
2023-01-29T05:06:19.674Z,3.80
2023-01-29T05:08:51.126Z,4.30
2023-01-29T05:11:21.144Z,4.23
2023-01-29T05:13:50.508Z,4.60
2023-01-29T05:16:23.526Z,4.73
2023-01-29T05:18:52.450Z,4.50
2023-01-29T05:21:23.576Z,4.10
2023-01-29T05:24:09.751Z,4.70
2023-01-29T05:26:56.226Z,5.40
2023-01-29T05:29:24.846Z,4.83
2023-01-29T05:31:53.652Z,4.33
2023-01-29T05:34:22.653Z,4.50
2023-01-29T05:36:52.761Z,5.30
2023-01-29T05:39:21.578Z,6.13
2023-01-29T05:41:50.206Z,7.00
2023-01-29T05:44:20.574Z,6.13
2023-01-29T05:46:49.342Z,5.70
2023-01-29T05:49:20.636Z,6.07
2023-01-29T05:51:49.166Z,6.03
2023-01-29T05:54:19.150Z,6.27
2023-01-29T05:56:47.758Z,9.67
2023-01-29T05:59:17.015Z,8.07
2023-01-29T06:01:45.638Z,6.70
2023-01-29T06:04:14.266Z,6.50
2023-01-29T06:06:42.857Z,6.70
2023-01-29T06:09:12.200Z,7.17
2023-01-29T06:11:42.315Z,6.50
2023-01-29T06:14:11.015Z,6.67
2023-01-29T06:16:39.590Z,9.07
2023-01-29T06:19:08.238Z,5.73
2023-01-29T06:21:36.980Z,5.67
2023-01-29T06:24:06.201Z,4.60
2023-01-29T06:26:34.753Z,5.23
2023-01-29T06:29:04.791Z,5.20
2023-01-29T06:31:38.875Z,5.30
2023-01-29T06:34:08.255Z,6.57
2023-01-29T06:36:37.193Z,6.77
2023-01-29T06:39:06.692Z,8.83
2023-01-29T06:41:35.795Z,7.33
2023-01-29T06:44:07.015Z,6.83
2023-01-29T06:46:35.648Z,6.80
2023-01-29T06:49:04.279Z,6.37
2023-01-29T06:51:32.953Z,6.00
2023-01-29T06:54:01.619Z,5.70
2023-01-29T06:56:30.239Z,6.17
2023-01-29T06:58:58.839Z,5.77
2023-01-29T07:01:36.110Z,5.37
2023-01-29T07:04:06.322Z,5.80
2023-01-29T07:06:35.261Z,5.20
2023-01-29T07:09:04.087Z,5.97
2023-01-29T07:11:32.872Z,5.63
2023-01-29T07:14:01.587Z,5.93
2023-01-29T07:16:31.748Z,6.27
2023-01-29T07:19:01.226Z,6.27
2023-01-29T07:21:29.908Z,6.80
2023-01-29T07:23:59.760Z,6.37
2023-01-29T07:26:28.699Z,6.00
2023-01-29T07:28:57.448Z,6.93
2023-01-29T07:31:26.106Z,7.17
2023-01-29T07:33:56.295Z,7.30
2023-01-29T07:36:25.308Z,8.53
2023-01-29T07:38:53.952Z,7.93
2023-01-29T07:41:22.897Z,6.90
2023-01-29T07:43:51.509Z,7.33
2023-01-29T07:46:20.383Z,7.03
2023-01-29T07:48:49.276Z,7.40
2023-01-29T07:51:21.511Z,7.90
2023-01-29T07:53:50.291Z,6.70
2023-01-29T07:56:18.899Z,7.53
2023-01-29T07:58:47.554Z,7.07
2023-01-29T08:01:16.454Z,7.00
2023-01-29T08:03:45.060Z,6.90
2023-01-29T08:06:13.691Z,7.60
2023-01-29T08:08:43.729Z,7.57
2023-01-29T08:11:12.316Z,7.27
2023-01-29T08:13:40.909Z,7.00
2023-01-29T08:16:10.061Z,7.20
2023-01-29T08:18:38.939Z,7.70
2023-01-29T08:21:07.698Z,6.93
2023-01-29T08:23:36.351Z,6.60
2023-01-29T08:26:06.694Z,6.57
2023-01-29T08:28:35.500Z,6.80
2023-01-29T08:31:04.163Z,7.23
2023-01-29T08:33:39.092Z,7.13
2023-01-29T08:36:09.877Z,6.90
2023-01-29T08:38:38.750Z,6.80
2023-01-29T08:41:09.771Z,7.13
2023-01-29T08:43:38.764Z,7.73
2023-01-29T08:46:08.124Z,6.30
2023-01-29T08:48:37.185Z,5.73
2023-01-29T08:51:06.039Z,5.43
2023-01-29T08:53:34.842Z,6.77
2023-01-29T08:56:03.585Z,6.17
2023-01-29T08:58:33.567Z,8.33
2023-01-29T09:01:08.176Z,7.97
2023-01-29T09:03:37.131Z,9.27
2023-01-29T09:06:06.071Z,8.93
2023-01-29T09:08:34.706Z,8.20
2023-01-29T09:11:03.435Z,8.53
2023-01-29T09:13:33.700Z,8.53
2023-01-29T09:16:03.043Z,8.60
2023-01-29T09:18:32.587Z,8.83
2023-01-29T09:21:02.705Z,9.73
2023-01-29T09:23:31.927Z,9.57
2023-01-29T09:26:01.751Z,9.00
2023-01-29T09:28:30.652Z,7.90
2023-01-29T09:31:02.976Z,7.90
2023-01-29T09:33:32.662Z,6.70
2023-01-29T09:36:01.239Z,5.63
2023-01-29T09:38:29.966Z,5.47
2023-01-29T09:41:06.528Z,4.70
2023-01-29T09:43:44.710Z,4.50
2023-01-29T09:46:20.818Z,4.63
2023-01-29T09:48:56.749Z,6.60
2023-01-29T09:51:29.973Z,7.03
2023-01-29T09:54:07.540Z,14.20
2023-01-29T09:56:37.107Z,14.30
2023-01-29T09:59:05.719Z,14.40
2023-01-29T10:01:45.875Z,15.20
2023-01-29T10:04:53.050Z,15.43
2023-01-29T10:07:38.190Z,15.77
2023-01-29T10:10:20.416Z,14.40
2023-01-29T10:13:01.182Z,11.87
2023-01-29T10:15:51.685Z,12.50
2023-01-29T10:18:50.652Z,14.27
2023-01-29T10:21:50.810Z,11.33
2023-01-29T10:24:27.512Z,12.73
2023-01-29T10:26:57.396Z,12.10
2023-01-29T10:29:28.756Z,9.90
2023-01-29T10:32:05.208Z,8.27
2023-01-29T10:34:40.611Z,9.37
2023-01-29T10:37:19.039Z,8.90
2023-01-29T10:39:47.799Z,8.37
2023-01-29T10:42:27.089Z,8.87
2023-01-29T10:45:11.692Z,7.27
2023-01-29T10:47:54.029Z,7.47
2023-01-29T10:50:41.659Z,7.47
2023-01-29T10:53:24.197Z,8.07
2023-01-29T10:56:02.470Z,8.03
2023-01-29T10:58:41.354Z,7.20
2023-01-29T11:01:11.211Z,7.73
2023-01-29T11:03:40.080Z,8.20
2023-01-29T11:06:18.564Z,7.57
2023-01-29T11:08:54.013Z,7.17
2023-01-29T11:11:26.014Z,6.93
2023-01-29T11:13:58.627Z,6.97
2023-01-29T11:16:28.551Z,7.07
2023-01-29T11:18:59.696Z,6.47
2023-01-29T11:21:30.980Z,6.63
2023-01-29T11:24:15.571Z,6.73
2023-01-29T11:26:45.986Z,6.50
2023-01-29T11:29:35.007Z,6.43
2023-01-29T11:32:07.424Z,5.97
2023-01-29T11:34:36.247Z,5.33
2023-01-29T11:37:17.006Z,4.97
2023-01-29T11:39:47.704Z,4.70
2023-01-29T11:42:22.550Z,5.40
2023-01-29T11:44:51.636Z,5.40
2023-01-29T11:47:24.247Z,4.23
2023-01-29T11:49:54.939Z,3.80
2023-01-29T11:52:26.809Z,4.73
2023-01-29T11:54:58.842Z,4.77
2023-01-29T11:57:32.372Z,4.43
2023-01-29T12:00:06.470Z,5.07
2023-01-29T12:02:39.626Z,4.67
2023-01-29T12:05:17.462Z,3.40
2023-01-29T12:07:50.987Z,3.30
2023-01-29T12:10:35.638Z,3.57
2023-01-29T12:13:19.232Z,3.20
2023-01-29T12:15:49.229Z,3.90
2023-01-29T12:18:32.359Z,3.73
2023-01-29T12:21:03.786Z,3.40
2023-01-29T12:23:41.801Z,3.40
2023-01-29T12:26:17.955Z,3.90
2023-01-29T12:28:57.032Z,4.57
2023-01-29T12:31:34.552Z,4.00
2023-01-29T12:34:11.832Z,3.20
2023-01-29T12:36:47.259Z,3.63
2023-01-29T12:39:18.958Z,3.57
2023-01-29T12:41:53.873Z,4.57
2023-01-29T12:44:26.946Z,3.73
2023-01-29T12:47:00.013Z,3.50
2023-01-29T12:49:33.251Z,4.53
2023-01-29T12:52:08.499Z,3.20
2023-01-29T12:54:42.299Z,3.60
2023-01-29T12:57:23.291Z,3.80
2023-01-29T12:59:58.667Z,4.10
2023-01-29T13:02:36.368Z,4.07
2023-01-29T13:05:15.172Z,3.10
2023-01-29T13:07:47.678Z,3.77
2023-01-29T13:10:22.302Z,3.73
2023-01-29T13:12:57.259Z,3.10
2023-01-29T13:15:31.483Z,3.67
2023-01-29T13:18:13.237Z,3.60
2023-01-29T13:20:42.610Z,4.07
2023-01-29T13:23:21.185Z,4.13
2023-01-29T13:25:53.848Z,3.90
2023-01-29T13:28:26.659Z,3.70
2023-01-29T13:31:16.153Z,4.10
2023-01-29T13:33:52.853Z,4.30
2023-01-29T13:36:27.929Z,4.00
2023-01-29T13:39:02.692Z,4.83
2023-01-29T13:41:38.353Z,3.73
2023-01-29T13:44:10.521Z,3.53
2023-01-29T13:46:42.762Z,4.20
2023-01-29T13:49:36.202Z,3.73
2023-01-29T13:52:24.120Z,4.80
2023-01-29T13:55:00.423Z,3.67
2023-01-29T13:57:53.914Z,4.27
2023-01-29T14:01:01.428Z,3.63
2023-01-29T14:04:04.901Z,3.90
2023-01-29T14:06:49.072Z,3.80
2023-01-29T14:09:34.870Z,4.37
2023-01-29T14:12:04.172Z,4.17
2023-01-29T14:15:00.675Z,3.87
2023-01-29T14:17:33.226Z,4.07
2023-01-29T14:20:05.445Z,4.00
2023-01-29T14:22:35.093Z,3.67
2023-01-29T14:25:06.245Z,4.27
2023-01-29T14:27:37.065Z,3.43
2023-01-29T14:30:11.115Z,4.03
2023-01-29T14:32:41.760Z,3.93
2023-01-29T14:35:20.302Z,3.53
2023-01-29T14:37:52.161Z,3.30
2023-01-29T14:40:25.054Z,3.50
2023-01-29T14:43:01.165Z,3.73
2023-01-29T14:45:32.703Z,3.83
2023-01-29T14:48:37.759Z,3.30
2023-01-29T14:51:12.026Z,4.87
2023-01-29T14:53:54.696Z,2.80
2023-01-29T14:56:29.655Z,3.10
2023-01-29T14:59:06.956Z,3.10
2023-01-29T15:01:40.211Z,3.10
2023-01-29T15:04:18.148Z,3.43
2023-01-29T15:06:48.818Z,4.07
2023-01-29T15:09:32.703Z,4.13
2023-01-29T15:12:14.997Z,4.00
2023-01-29T15:14:51.475Z,4.17
2023-01-29T15:17:29.367Z,4.80
2023-01-29T15:19:58.231Z,4.50
2023-01-29T15:22:29.215Z,4.97
2023-01-29T15:25:07.429Z,5.13
2023-01-29T15:27:36.399Z,5.03
2023-01-29T15:30:08.313Z,5.50
2023-01-29T15:32:41.250Z,6.37
2023-01-29T15:35:12.046Z,5.53
2023-01-29T15:37:41.880Z,5.30
2023-01-29T15:40:17.967Z,5.67
2023-01-29T15:42:49.372Z,5.13
2023-01-29T15:45:27.605Z,6.10
2023-01-29T15:48:04.528Z,5.10
2023-01-29T15:50:37.965Z,6.40
2023-01-29T15:53:10.899Z,5.77
2023-01-29T15:55:40.537Z,6.40
2023-01-29T15:58:16.322Z,6.50
2023-01-29T16:00:50.980Z,6.70
2023-01-29T16:03:24.812Z,6.83
2023-01-29T16:05:54.607Z,6.90
2023-01-29T16:08:24.988Z,6.53
2023-01-29T16:10:56.370Z,6.90
2023-01-29T16:13:27.486Z,6.77
2023-01-29T16:15:58.462Z,6.53
2023-01-29T16:18:35.173Z,6.27
2023-01-29T16:21:09.225Z,6.00
2023-01-29T16:23:43.383Z,6.03
2023-01-29T16:26:19.149Z,6.00
2023-01-29T16:28:48.986Z,6.30
2023-01-29T16:31:23.718Z,7.40
2023-01-29T16:33:54.262Z,6.67
2023-01-29T16:36:25.980Z,7.13
2023-01-29T16:39:00.003Z,6.83
2023-01-29T16:41:33.725Z,7.40
2023-01-29T16:44:03.847Z,9.33
2023-01-29T16:46:37.543Z,9.87
2023-01-29T16:49:45.017Z,8.27
2023-01-29T16:52:19.852Z,9.67
2023-01-29T16:54:49.343Z,9.27
2023-01-29T16:57:21.002Z,9.30
2023-01-29T16:59:50.057Z,10.83
2023-01-29T17:02:25.190Z,9.60
2023-01-29T17:05:00.299Z,10.20
2023-01-29T17:07:30.727Z,10.70
2023-01-29T17:10:02.535Z,12.57
2023-01-29T17:12:33.170Z,9.67
2023-01-29T17:15:03.247Z,13.07
2023-01-29T17:17:33.586Z,13.73
2023-01-29T17:20:15.368Z,15.83
2023-01-29T17:22:44.882Z,14.70
2023-01-29T17:25:16.114Z,14.47
2023-01-29T17:27:51.692Z,15.77
2023-01-29T17:30:22.836Z,14.03
2023-01-29T17:32:51.520Z,14.57
2023-01-29T17:35:23.550Z,13.30
2023-01-29T17:37:52.165Z,14.60
2023-01-29T17:40:31.883Z,14.60
2023-01-29T17:43:01.438Z,13.57
2023-01-29T17:45:30.263Z,15.40
2023-01-29T17:47:59.769Z,16.73
2023-01-29T17:50:33.146Z,15.73
2023-01-29T17:53:02.893Z,14.63
2023-01-29T17:55:31.597Z,13.77
2023-01-29T17:58:00.347Z,15.20
2023-01-29T18:00:29.005Z,11.40
2023-01-29T18:02:58.219Z,12.73
2023-01-29T18:05:26.916Z,10.47
2023-01-29T18:07:56.933Z,12.17
2023-01-29T18:10:25.591Z,12.10
2023-01-29T18:12:54.453Z,10.47
2023-01-29T18:15:23.432Z,10.93
2023-01-29T18:17:53.287Z,11.57
2023-01-29T18:20:25.821Z,11.43
2023-01-29T18:22:57.123Z,13.07
2023-01-29T18:25:25.919Z,15.53
2023-01-29T18:27:54.582Z,12.20
2023-01-29T18:30:23.385Z,12.27
2023-01-29T18:32:52.038Z,12.27
2023-01-29T18:35:20.768Z,12.93
2023-01-29T18:37:49.514Z,12.67
2023-01-29T18:40:20.225Z,12.50
2023-01-29T18:42:49.244Z,13.47
2023-01-29T18:45:18.860Z,14.77
2023-01-29T18:47:48.754Z,13.60
2023-01-29T18:50:19.142Z,13.47
2023-01-29T18:52:47.875Z,13.43
2023-01-29T18:55:17.076Z,13.83
2023-01-29T18:58:28.771Z,14.23
2023-01-29T19:00:36.579Z,16.50
2023-01-29T19:03:05.361Z,14.07
2023-01-29T19:05:35.525Z,15.70
2023-01-29T19:08:05.384Z,16.17
2023-01-29T19:10:34.172Z,18.50
2023-01-29T19:13:05.873Z,13.90
2023-01-29T19:15:36.107Z,13.37
2023-01-29T19:18:04.883Z,14.63
2023-01-29T19:20:34.426Z,14.90
2023-01-29T19:23:02.993Z,15.60
2023-01-29T19:25:31.663Z,15.87
2023-01-29T19:28:00.303Z,15.77
2023-01-29T19:30:30.521Z,16.30
2023-01-29T19:32:59.195Z,15.23
2023-01-29T19:35:28.585Z,16.60
2023-01-29T19:37:57.373Z,17.90
2023-01-29T19:40:26.733Z,19.57
2023-01-29T19:42:56.771Z,20.67
2023-01-29T19:45:49.901Z,19.50
2023-01-29T19:48:17.794Z,15.83
2023-01-29T19:50:53.450Z,17.50
2023-01-29T19:53:22.986Z,15.80
2023-01-29T19:55:58.770Z,17.27
2023-01-29T19:58:27.602Z,17.37
2023-01-29T20:00:57.557Z,18.40
2023-01-29T20:03:29.254Z,16.37
2023-01-29T20:06:02.601Z,16.63
2023-01-29T20:08:31.762Z,18.17
2023-01-29T20:11:02.228Z,17.93
2023-01-29T20:13:30.977Z,18.30
2023-01-29T20:16:03.195Z,17.93
2023-01-29T20:18:34.505Z,19.83
2023-01-29T20:21:08.226Z,19.23
2023-01-29T20:23:38.735Z,20.17
2023-01-29T20:26:08.761Z,19.57
2023-01-29T20:28:38.691Z,19.50
2023-01-29T20:31:08.997Z,21.27
2023-01-29T20:33:40.571Z,21.77
2023-01-29T20:36:11.572Z,22.67
2023-01-29T20:38:40.589Z,21.30
2023-01-29T20:41:10.634Z,20.03
2023-01-29T20:43:40.730Z,20.23
2023-01-29T20:46:10.112Z,19.87
2023-01-29T20:48:42.655Z,20.80
2023-01-29T20:51:15.857Z,19.63
2023-01-29T20:53:47.531Z,20.83
2023-01-29T20:56:18.151Z,22.93
2023-01-29T20:58:50.116Z,22.03
2023-01-29T21:01:21.545Z,22.60
2023-01-29T21:03:52.666Z,22.07
2023-01-29T21:06:25.131Z,21.57
2023-01-29T21:08:54.370Z,21.30
2023-01-29T21:11:23.485Z,20.93
2023-01-29T21:13:54.439Z,22.93
2023-01-29T21:16:23.056Z,21.83
2023-01-29T21:18:55.958Z,21.90
2023-01-29T21:21:26.767Z,22.43
2023-01-29T21:23:55.777Z,23.30
2023-01-29T21:26:25.098Z,25.40
2023-01-29T21:28:53.833Z,23.73
2023-01-29T21:31:23.210Z,22.23
2023-01-29T21:33:55.027Z,20.23
2023-01-29T21:36:25.506Z,22.33
2023-01-29T21:39:36.462Z,22.10
2023-01-29T21:42:24.093Z,27.13
2023-01-29T21:44:53.236Z,24.17
2023-01-29T21:47:22.444Z,24.57
2023-01-29T21:49:51.089Z,24.33
2023-01-29T21:52:19.698Z,24.20
2023-01-29T21:54:51.228Z,24.90
2023-01-29T21:57:19.866Z,22.50
2023-01-29T21:59:52.951Z,19.87
2023-01-29T22:02:22.857Z,19.10
2023-01-29T22:04:52.490Z,16.30
2023-01-29T22:07:21.138Z,19.93
2023-01-29T22:09:51.433Z,23.70
2023-01-29T22:12:20.378Z,24.97
2023-01-29T22:14:49.071Z,26.13
2023-01-29T22:17:19.767Z,24.33
2023-01-29T22:19:48.664Z,23.50
2023-01-29T22:22:19.854Z,23.87
2023-01-29T22:24:48.548Z,27.07
2023-01-29T22:27:18.628Z,26.93
2023-01-29T22:29:47.334Z,20.67
2023-01-29T22:32:16.442Z,21.30
2023-01-29T22:34:45.384Z,23.10
2023-01-29T22:37:14.099Z,20.97
2023-01-29T22:39:42.803Z,22.70
2023-01-29T22:42:11.586Z,22.17
2023-01-29T22:44:41.633Z,20.97
2023-01-29T22:47:10.207Z,19.47
2023-01-29T22:49:39.148Z,17.83
2023-01-29T22:52:14.145Z,19.70
2023-01-29T22:54:44.279Z,20.63
2023-01-29T22:57:14.702Z,19.20
2023-01-29T22:59:44.763Z,15.37
2023-01-29T23:02:13.326Z,14.00
2023-01-29T23:04:42.066Z,13.40
2023-01-29T23:07:11.461Z,13.83
2023-01-29T23:09:40.038Z,12.33
2023-01-29T23:12:09.046Z,12.33
2023-01-29T23:14:38.277Z,11.27
2023-01-29T23:17:08.291Z,9.50
2023-01-29T23:19:36.991Z,9.33
2023-01-29T23:22:05.813Z,9.60
2023-01-29T23:24:34.558Z,8.70
2023-01-29T23:27:17.396Z,9.00
2023-01-29T23:29:48.606Z,10.73
2023-01-29T23:32:21.981Z,14.47
2023-01-29T23:34:50.683Z,16.40
2023-01-29T23:37:19.271Z,17.03
2023-01-29T23:39:47.864Z,17.33
2023-01-29T23:42:16.471Z,16.07
2023-01-29T23:44:45.075Z,13.00
2023-01-29T23:47:13.665Z,11.80
2023-01-29T23:49:43.841Z,10.40
2023-01-29T23:52:12.459Z,10.90
2023-01-29T23:54:41.051Z,10.70
2023-01-29T23:57:09.668Z,10.03
2023-01-29T23:59:38.317Z,6.77
